PAGINA EN CONSTRUCCIÓN

DISCULPEN POSIBLES FALLOS



Daganzo more information Daganzo


Meteosat more information blitzortung!


Radar lluvias  rain snow radar


Visita nuestra red de sitios de meteo:

Documentation for the template used

MeteoibericaRed estaciones Meteorologicas



Sin Advertencias climatologicas .En este momento tenemos Nivel Verde.    No hay Alarmas

Pagina Historial Weather Underground texto

Diario Resumen January 16, 2019 Unidades:  Métrico    impérial   Tanto
« Anterior Dia
Siguiente Dia »
Diario Semana Mensual Anual Personalizada
  Actual: Alto: Baja: Media:
Temperatura: -14.2 °C -17.8 °C -18.7 °C -15.3 °C
Punto de rocío: -15.4 °C -17.8 °C -19.1 °C -17.2 °C
Humedad: 86 % Humidity % 59 % 79 %
Velocidad del Viento: 15 km/h 0 km/h 0 km/h 12.4 km/h
Ráfagas de viento: 9.8 km/h 0 km/h - -
Viento:West - - ESE
Pression baro: 34378.1 hPa 0 hPa 34364.5 hPa -
Précipitaciones: 0 mm      
Historical Graphs
 
 
Datos de tabla para January 16, 2019
Tiempo Temperatura Punto de rocío Pression baro Viento Velocidad del Viento Ráfagas de viento Humedad Las precipitaciones Rate ( Hora )
-17.8 °C -17.8 °C 0 hPa Calm     Humidity % 0 mm
00:01 -15.6 °C -18 °C 34483 hPa North 9 km/h 4.2 km/h 73 % 0 mm
00:06 -15.7 °C -18.1 °C 34483 hPa North 6 km/h   73 % 0 mm
00:11 -15.8 °C -18.2 °C 34486.4 hPa NW 4.2 km/h   74 % 0 mm
00:16 -15.9 °C -18.3 °C 34483 hPa NW 3.1 km/h   74 % 0 mm
00:21 -16.1 °C -18.2 °C 34479.6 hPa South 4.2 km/h 1.8 km/h 76 % 0 mm
00:26 -16 °C -18.1 °C 34483 hPa South 3.1 km/h   76 % 0 mm
00:31 -16.1 °C -18.1 °C 34479.6 hPa Calm     77 % 0 mm
00:36 -16.1 °C -18.2 °C 34483 hPa Calm     76 % 0 mm
00:41 -16.2 °C -18.1 °C 34479.6 hPa NW 4.2 km/h 1.8 km/h 78 % 0 mm
00:46 -16.2 °C -18.2 °C 34483 hPa North 8 km/h 5.6 km/h 77 % 0 mm
00:51 -16.3 °C -18.1 °C 34479.6 hPa North 9 km/h 4.2 km/h 79 % 0 mm
00:56 -16.3 °C -18.2 °C 34479.6 hPa North 9 km/h 5.6 km/h 78 % 0 mm
01:01 -16.3 °C -18.2 °C 34479.6 hPa North 9 km/h 4.2 km/h 78 % 0 mm
01:06 -16.3 °C -18.2 °C 34476.3 hPa North 8 km/h 5.6 km/h 78 % 0 mm
01:11 -16.4 °C -18.2 °C 34476.3 hPa North 9 km/h 5.6 km/h 79 % 0 mm
01:16 -16.4 °C -18.2 °C 34476.3 hPa North 9 km/h 5.6 km/h 80 % 0 mm
01:21 -16.4 °C -18.2 °C 34476.3 hPa North 9 km/h 5.6 km/h 80 % 0 mm
01:26 -16.5 °C -18.3 °C 34472.9 hPa North 9 km/h 4.2 km/h 79 % 0 mm
01:31 -16.7 °C -18.4 °C 34469.5 hPa North 6 km/h 1.8 km/h 80 % 0 mm
01:36 -16.7 °C -18.3 °C 34469.5 hPa North 6 km/h 1.8 km/h 81 % 0 mm
01:41 -16.8 °C -18.4 °C 34469.5 hPa North 9 km/h 4.2 km/h 81 % 0 mm
01:46 -16.9 °C -18.3 °C 34472.9 hPa North 9 km/h 5.6 km/h 83 % 0 mm
01:51 -16.8 °C -18.2 °C 34466.1 hPa North 3.1 km/h   84 % 0 mm
01:56 -16.7 °C -18.1 °C 34462.7 hPa Calm     84 % 0 mm
02:01 -16.7 °C -18.2 °C 34466.1 hPa North 4.2 km/h 1.8 km/h 83 % 0 mm
02:06 -16.8 °C -18.2 °C 34469.5 hPa NW 5.6 km/h 4.2 km/h 83 % 0 mm
02:11 -16.8 °C -17.9 °C 34462.7 hPa NW 3.1 km/h   86 % 0 mm
02:16 -16.7 °C -17.9 °C 34466.1 hPa NW 1.8 km/h   85 % 0 mm
02:21 -16.8 °C -18.1 °C 34459.3 hPa North 9.8 km/h 5.6 km/h 84 % 0 mm
02:26 -16.9 °C -18.1 °C 34466.1 hPa North 11.6 km/h 9.8 km/h 86 % 0 mm
02:31 -16.9 °C -18.1 °C 34462.7 hPa North 9.8 km/h 8 km/h 86 % 0 mm
02:36 -16.9 °C -18 °C 34459.3 hPa North 9 km/h 5.6 km/h 87 % 0 mm
02:41 -16.9 °C -17.9 °C 34455.9 hPa North 9.8 km/h 5.6 km/h 88 % 0 mm
02:46 -16.9 °C -18.1 °C 34459.3 hPa North 9 km/h 5.6 km/h 86 % 0 mm
02:51 -17 °C -18.2 °C 34459.3 hPa North 9 km/h 5.6 km/h 86 % 0 mm
02:56 -16.9 °C -17.9 °C 34455.9 hPa North 9 km/h 5.6 km/h 88 % 0 mm
03:01 -16.9 °C -18 °C 34452.6 hPa North 9.8 km/h 8 km/h 87 % 0 mm
03:06 -17 °C -18 °C 34455.9 hPa North 11.9 km/h 9.8 km/h 88 % 0 mm
03:11 -17 °C -18 °C 34455.9 hPa North 11.9 km/h 9.8 km/h 88 % 0 mm
03:16 -17 °C -18 °C 34459.3 hPa North 9 km/h 5.6 km/h 88 % 0 mm
03:21 -17 °C -18 °C 34459.3 hPa North 9 km/h 5.6 km/h 88 % 0 mm
03:26 -17 °C -18 °C 34459.3 hPa North 6 km/h 4.2 km/h 88 % 0 mm
03:31 -17.1 °C -18 °C 34455.9 hPa North 9 km/h 5.6 km/h 88 % 0 mm
03:36 -17.2 °C -18.2 °C 34455.9 hPa North 6 km/h 4.2 km/h 88 % 0 mm
03:41 -17.2 °C -18.1 °C 34459.3 hPa North 6 km/h 1.8 km/h 89 % 0 mm
03:46 -17.3 °C -18.1 °C 34462.7 hPa North 6 km/h 4.2 km/h 90 % 0 mm
03:51 -17.3 °C -18 °C 34466.1 hPa North 6 km/h   91 % 0 mm
03:56 -17.3 °C -17.9 °C 34455.9 hPa Calm     92 % 0 mm
04:01 -17.3 °C -17.9 °C 34459.3 hPa Calm     92 % 0 mm
04:06 -17.3 °C -17.9 °C 34455.9 hPa Calm     92 % 0 mm
04:11 -17.4 °C -18.1 °C 34455.9 hPa North 4.2 km/h 1.8 km/h 92 % 0 mm
04:16 -17.6 °C -18.1 °C 34455.9 hPa North 4.2 km/h 1.8 km/h 93 % 0 mm
04:21 -17.6 °C -18 °C 34452.6 hPa North 4.2 km/h 1.8 km/h 94 % 0 mm
04:26 -17.6 °C -18 °C 34455.9 hPa North 9 km/h 4.2 km/h 94 % 0 mm
04:31 -17.4 °C -17.9 °C 34452.6 hPa North 6 km/h 4.2 km/h 94 % 0 mm
04:36 -17.3 °C -17.8 °C 34452.6 hPa North 6 km/h 4.2 km/h 94 % 0 mm
04:41 -17.2 °C -17.7 °C 34449.2 hPa North 8 km/h 5.6 km/h 94 % 0 mm
04:46 -17.3 °C -17.8 °C 34445.8 hPa North 9 km/h 4.2 km/h 94 % 0 mm
04:51 -17.6 °C -18.2 °C 34445.8 hPa North 9 km/h 5.6 km/h 92 % 0 mm
04:56 -17.8 °C -18.3 °C 34445.8 hPa North 9.8 km/h 8 km/h 93 % 0 mm
05:01 -17.8 °C -18.2 °C 34445.8 hPa North 9 km/h 5.6 km/h 94 % 0 mm
05:06 -17.8 °C -18.2 °C 34445.8 hPa North 9 km/h 5.6 km/h 94 % 0 mm
05:11 -17.7 °C -18.2 °C 34445.8 hPa North 9 km/h 4.2 km/h 94 % 0 mm
05:16 -17.7 °C -18.2 °C 34442.4 hPa North 9 km/h 5.6 km/h 94 % 0 mm
05:21 -17.7 °C -18.2 °C 34439 hPa North 9 km/h 5.6 km/h 94 % 0 mm
05:26 -17.7 °C -18.2 °C 34442.4 hPa North 9 km/h 4.2 km/h 94 % 0 mm
05:31 -17.7 °C -18.2 °C 34439 hPa North 9 km/h 5.6 km/h 94 % 0 mm
05:36 -17.6 °C -18.1 °C 34442.4 hPa North 9 km/h 5.6 km/h 94 % 0 mm
05:41 -17.6 °C -18 °C 34439 hPa North 8 km/h 5.6 km/h 94 % 0 mm
05:46 -17.6 °C -18 °C 34439 hPa North 9 km/h 4.2 km/h 94 % 0 mm
05:51 -17.7 °C -18.2 °C 34435.6 hPa North 6 km/h 4.2 km/h 94 % 0 mm
05:56 -17.7 °C -18.2 °C 34435.6 hPa North 9 km/h 5.6 km/h 94 % 0 mm
06:01 -17.8 °C -18.2 °C 34432.2 hPa North 9.8 km/h 8 km/h 94 % 0 mm
06:06 -17.9 °C -18.4 °C 34435.6 hPa North 9 km/h 5.6 km/h 94 % 0 mm
06:11 -17.8 °C -18.3 °C 34432.2 hPa North 9 km/h 5.6 km/h 94 % 0 mm
06:16 -17.8 °C -18.2 °C 34435.6 hPa North 9.8 km/h 8 km/h 94 % 0 mm
06:21 -17.7 °C -18.2 °C 34435.6 hPa North 9.8 km/h 5.6 km/h 94 % 0 mm
06:26 -17.8 °C -18.2 °C 34435.6 hPa North 9 km/h 5.6 km/h 94 % 0 mm
06:31 -17.9 °C -18.4 °C 34432.2 hPa North 9.8 km/h 5.6 km/h 94 % 0 mm
06:36 -17.9 °C -18.4 °C 34432.2 hPa North 9.8 km/h 8 km/h 94 % 0 mm
06:41 -17.9 °C -18.4 °C 34435.6 hPa North 9 km/h 4.2 km/h 94 % 0 mm
06:46 -17.9 °C -18.4 °C 34432.2 hPa North 9.8 km/h 8 km/h 94 % 0 mm
06:51 -18 °C -18.4 °C 34432.2 hPa North 11.9 km/h 8 km/h 94 % 0 mm
06:56 -17.9 °C -18.4 °C 34432.2 hPa North 9 km/h 5.6 km/h 94 % 0 mm
07:01 -17.7 °C -18.2 °C 34432.2 hPa North 9.8 km/h 8 km/h 94 % 0 mm
07:06 -17.6 °C -18.1 °C 34432.2 hPa North 9 km/h 5.6 km/h 94 % 0 mm
07:11 -17.6 °C -18.1 °C 34432.2 hPa North 6 km/h 4.2 km/h 94 % 0 mm
07:16 -17.6 °C -18.1 °C 34432.2 hPa North 6 km/h 1.8 km/h 94 % 0 mm
07:21 -17.7 °C -18.2 °C 34432.2 hPa SSE 4.2 km/h 1.8 km/h 94 % 0 mm
07:26 -17.8 °C -18.2 °C 34435.6 hPa South 8 km/h 5.6 km/h 94 % 0 mm
07:31 -17.9 °C -18.4 °C 34435.6 hPa South 9 km/h 4.2 km/h 94 % 0 mm
07:36 -17.9 °C -18.4 °C 34439 hPa South 4.2 km/h   94 % 0 mm
07:41 -18.1 °C -18.5 °C 34442.4 hPa South 4.2 km/h 1.8 km/h 94 % 0 mm
07:46 -18.2 °C -18.7 °C 34442.4 hPa South 4.2 km/h 1.8 km/h 94 % 0 mm
07:51 -18.2 °C -18.7 °C 34439 hPa NW 4.2 km/h 1.8 km/h 94 % 0 mm
07:56 -18.2 °C -18.7 °C 34442.4 hPa NW 4.2 km/h 1.8 km/h 94 % 0 mm
08:01 -18.2 °C -18.7 °C 34442.4 hPa NW 6 km/h 1.8 km/h 94 % 0 mm
08:06 -18.4 °C -18.8 °C 34445.8 hPa North 9.8 km/h 8 km/h 94 % 0 mm
08:11 -18.6 °C -19.1 °C 34439 hPa North 15 km/h 8 km/h 94 % 0 mm
08:16 -18.7 °C -19.1 °C 34442.4 hPa North 9.8 km/h 8 km/h 94 % 0 mm
08:21 -18.6 °C -19.1 °C 34442.4 hPa North 9.8 km/h 8 km/h 94 % 0 mm
08:26 -18.4 °C -18.8 °C 34439 hPa North 9.8 km/h 8 km/h 94 % 0 mm
08:31 -18.3 °C -18.7 °C 34435.6 hPa North 9.8 km/h 8 km/h 94 % 0 mm
08:36 -18.2 °C -18.7 °C 34439 hPa North 9 km/h 5.6 km/h 94 % 0 mm
08:41 -18.2 °C -18.7 °C 34442.4 hPa North 9 km/h 5.6 km/h 94 % 0 mm
08:46 -18.2 °C -18.7 °C 34439 hPa North 9.8 km/h 8 km/h 94 % 0 mm
08:51 -18.1 °C -18.6 °C 34439 hPa North 9.8 km/h 8 km/h 94 % 0 mm
08:56 -17.9 °C -18.4 °C 34442.4 hPa North 9.8 km/h 8 km/h 94 % 0 mm
09:01 -17.7 °C -18.2 °C 34442.4 hPa North 11.9 km/h 9.8 km/h 94 % 0 mm
09:06 -17.5 °C -17.9 °C 34439 hPa North 11.9 km/h 8 km/h 94 % 0 mm
09:11 -17.3 °C -17.8 °C 34435.6 hPa North 11.9 km/h 8 km/h 94 % 0 mm
09:16 -17.2 °C -17.7 °C 34445.8 hPa North 11.9 km/h 9.8 km/h 94 % 0 mm
09:21 -17.1 °C -17.6 °C 34439 hPa North 11.9 km/h 9.8 km/h 94 % 0 mm
09:26 -17 °C -17.4 °C 34442.4 hPa North 11.9 km/h 8 km/h 94 % 0 mm
09:31 -16.9 °C -17.4 °C 34439 hPa North 9 km/h 5.6 km/h 94 % 0 mm
09:36 -16.9 °C -17.4 °C 34445.8 hPa North 9 km/h 4.2 km/h 94 % 0 mm
09:41 -16.8 °C -17.3 °C 34452.6 hPa North 6 km/h   94 % 0 mm
09:46 -16.4 °C -16.9 °C 34452.6 hPa North 1.8 km/h   94 % 0 mm
09:51 -16.3 °C -16.9 °C 34455.9 hPa South 3.1 km/h   92 % 0 mm
09:56 -16.2 °C -17.2 °C 34452.6 hPa South 4.2 km/h 1.8 km/h 88 % 0 mm
10:01 -15.9 °C -17.1 °C 34449.2 hPa South 3.1 km/h   87 % 0 mm
10:06 -15.6 °C -17 °C 34452.6 hPa Calm     84 % 0 mm
10:11 -15.3 °C -16.8 °C 34455.9 hPa Calm     83 % 0 mm
10:16 -15 °C -16.7 °C 34452.6 hPa Calm     81 % 0 mm
10:21 -14.8 °C -16.6 °C 34452.6 hPa Calm     79 % 0 mm
10:26 -14.6 °C -16.6 °C 34455.9 hPa Calm     78 % 0 mm
10:31 -14.4 °C -16.7 °C 34459.3 hPa South 3.1 km/h   75 % 0 mm
10:36 -14.3 °C -16.7 °C 34459.3 hPa South 4.2 km/h   74 % 0 mm
10:41 -14.3 °C -16.9 °C 34459.3 hPa East 4.2 km/h 1.8 km/h 72 % 0 mm
10:46 -14.5 °C -17.1 °C 34459.3 hPa South 8 km/h 4.2 km/h 72 % 0 mm
10:51 -14.7 °C -17.2 °C 34462.7 hPa SE 9 km/h 4.2 km/h 73 % 0 mm
10:56 -14.7 °C -16.8 °C 34459.3 hPa South 6 km/h 1.8 km/h 76 % 0 mm
11:01 -14.6 °C -16.8 °C 34462.7 hPa South 9 km/h 4.2 km/h 75 % 0 mm
11:06 -14.6 °C -16.9 °C 34462.7 hPa South 9 km/h 4.2 km/h 75 % 0 mm
11:11 -14.6 °C -16.8 °C 34462.7 hPa SE 9 km/h 4.2 km/h 76 % 0 mm
11:16 -14.6 °C -16.7 °C 34466.1 hPa South 9.8 km/h 4.2 km/h 76 % 0 mm
11:21 -14.6 °C -16.8 °C 34466.1 hPa East 9 km/h 4.2 km/h 75 % 0 mm
11:26 -14.7 °C -16.8 °C 34462.7 hPa SE 11.6 km/h 8 km/h 76 % 0 mm
11:31 -14.6 °C -16.8 °C 34462.7 hPa South 15 km/h 8 km/h 76 % 0 mm
11:36 -14.5 °C -16.7 °C 34455.9 hPa SE 11.9 km/h 4.2 km/h 76 % 0 mm
11:41 -14.4 °C -16.8 °C 34449.2 hPa South 9.8 km/h 5.6 km/h 74 % 0 mm
11:46 -14.2 °C -16.6 °C 34459.3 hPa South 9 km/h 5.6 km/h 74 % 0 mm
11:51 -14.3 °C -16.7 °C 34449.2 hPa South 9.8 km/h 4.2 km/h 74 % 0 mm
11:56 -14.2 °C -16.7 °C 34452.6 hPa South 15 km/h 8 km/h 73 % 0 mm
12:01 -14 °C -16.4 °C 34452.6 hPa SSW 11.6 km/h 8 km/h 74 % 0 mm
12:06 -13.9 °C -16.5 °C 34455.9 hPa SW 14 km/h 9.8 km/h 72 % 0 mm
12:11 -13.8 °C -16.4 °C 34449.2 hPa South 15 km/h 5.6 km/h 72 % 0 mm
12:16 -13.8 °C -16.4 °C 34449.2 hPa South 11.9 km/h 8 km/h 72 % 0 mm
12:21 -13.8 °C -16.6 °C 34449.2 hPa South 15.6 km/h 11.6 km/h 71 % 0 mm
12:26 -13.8 °C -16.4 °C 34445.8 hPa South 20.9 km/h 8 km/h 72 % 0 mm
12:31 -13.7 °C -16.4 °C 34449.2 hPa South 11.9 km/h 4.2 km/h 71 % 0 mm
12:36 -13.5 °C -16.3 °C 34442.4 hPa SW 11.9 km/h 8 km/h 70 % 0 mm
12:41 -13.5 °C -16.4 °C 34442.4 hPa SW 15.6 km/h 9.8 km/h 69 % 0 mm
12:46 -13.3 °C -16.2 °C 34435.6 hPa South 15 km/h 5.6 km/h 69 % 0 mm
12:51 -13.4 °C -16.3 °C 34435.6 hPa SSW 11.9 km/h 5.6 km/h 69 % 0 mm
12:56 -13.3 °C -16.3 °C 34432.2 hPa SW 15 km/h 8 km/h 68 % 0 mm
13:01 -13.2 °C -16.4 °C 34428.8 hPa South 15.6 km/h 11.6 km/h 67 % 0 mm
13:06 -12.9 °C -16.2 °C 34428.8 hPa West 11.9 km/h 4.2 km/h 67 % 0 mm
13:11 -12.9 °C -16.2 °C 34415.3 hPa South 15 km/h 8 km/h 66 % 0 mm
13:16 -13 °C -16.3 °C 34418.7 hPa South 15 km/h 8 km/h 66 % 0 mm
13:21 -12.9 °C -16.1 °C 34415.3 hPa South 15 km/h 8 km/h 67 % 0 mm
13:26 -12.9 °C -16.4 °C 34415.3 hPa South 20.9 km/h 14 km/h 65 % 0 mm
13:31 -12.9 °C -16.2 °C 34411.9 hPa SW 17.9 km/h 9.8 km/h 66 % 0 mm
13:36 -12.8 °C -16.3 °C 34411.9 hPa South 17.9 km/h 14 km/h 65 % 0 mm
13:41 -12.7 °C -16.2 °C 34405.1 hPa SW 15.6 km/h 8 km/h 65 % 0 mm
13:46 -12.5 °C -16 °C 34408.5 hPa SW 20.9 km/h 8 km/h 65 % 0 mm
13:51 -12.4 °C -16.2 °C 34401.8 hPa South 17.9 km/h 11.6 km/h 63 % 0 mm
13:56 -12.4 °C -16.2 °C 34401.8 hPa South 17.9 km/h 9.8 km/h 63 % 0 mm
14:01 -12.6 °C -16.3 °C 34401.8 hPa South 20.9 km/h 9.8 km/h 63 % 0 mm
14:06 -12.4 °C -16.3 °C 34398.4 hPa SSW 19.6 km/h 15.6 km/h 62 % 0 mm
14:11 -12.5 °C -16.2 °C 34395 hPa South 23.8 km/h 17.9 km/h 63 % 0 mm
14:16 -12.4 °C -16.2 °C 34388.2 hPa South 20.9 km/h 9.8 km/h 63 % 0 mm
14:21 -12.3 °C -16.2 °C 34395 hPa SW 23.8 km/h 9.8 km/h 62 % 0 mm
14:26 -12.6 °C -16.3 °C 34395 hPa South 27.7 km/h 19.6 km/h 63 % 0 mm
14:31 -12.4 °C -16.2 °C 34391.6 hPa SW 20.9 km/h 9.8 km/h 63 % 0 mm
14:36 -12.5 °C -16.3 °C 34388.2 hPa SW 31.4 km/h 25.4 km/h 62 % 0 mm
14:41 -12.4 °C -16.3 °C 34391.6 hPa SW 25.4 km/h 17.9 km/h 62 % 0 mm
14:46 -12.4 °C -16.2 °C 34391.6 hPa NW 32.8 km/h 15.6 km/h 63 % 0 mm
14:51 -12.3 °C -16.2 °C 34388.2 hPa SW 25.4 km/h 19.6 km/h 62 % 0 mm
14:56 -12.3 °C -16.1 °C 34384.8 hPa West 26.9 km/h 11.6 km/h 63 % 0 mm
15:01 -12.2 °C -16.1 °C 34384.8 hPa SW 26.9 km/h 11.6 km/h 62 % 0 mm
15:06 -12.2 °C -16.2 °C 34384.8 hPa SW 19.6 km/h 15.6 km/h 61 % 0 mm
15:11 -12.1 °C -16.1 °C 34384.8 hPa South 26.9 km/h 5.6 km/h 61 % 0 mm
15:16 -11.9 °C -16.1 °C 34378.1 hPa South 29.5 km/h 17.9 km/h 60 % 0 mm
15:21 -11.8 °C -15.9 °C 34378.1 hPa South 20.9 km/h 8 km/h 60 % 0 mm
15:26 -11.9 °C -16.2 °C 34378.1 hPa SW 29.8 km/h 19.6 km/h 59 % 0 mm
15:31 -11.9 °C -16 °C 34378.1 hPa SSW 29.5 km/h 14 km/h 60 % 0 mm
15:36 -11.9 °C -16 °C 34378.1 hPa South 26.9 km/h 15.6 km/h 60 % 0 mm
15:41 -11.9 °C -15.9 °C 34381.4 hPa SW 26.9 km/h 11.6 km/h 61 % 0 mm
15:46 -11.9 °C -16 °C 34378.1 hPa NNW 26.9 km/h 15.6 km/h 60 % 0 mm
15:51 -11.9 °C -16 °C 34381.4 hPa SSW 32.8 km/h 19.6 km/h 60 % 0 mm
15:56 -11.8 °C -15.9 °C 34374.7 hPa NNE 21.6 km/h 14 km/h 60 % 0 mm
16:01 -11.9 °C -15.9 °C 34371.3 hPa SW 35.7 km/h 15.6 km/h 61 % 0 mm
16:06 -11.9 °C -15.9 °C 34367.9 hPa SW 23.8 km/h 15.6 km/h 61 % 0 mm
16:11 -11.9 °C -15.9 °C 34367.9 hPa SW 26.9 km/h 17.9 km/h 61 % 0 mm
16:16 -11.9 °C -16 °C 34367.9 hPa South 26.9 km/h 11.6 km/h 60 % 0 mm
16:21 -11.8 °C -15.8 °C 34364.5 hPa North 26.9 km/h 15.6 km/h 61 % 0 mm
16:26 -11.8 °C -15.8 °C 34371.3 hPa SW 29.8 km/h 15.6 km/h 61 % 0 mm
16:31 -11.7 °C -15.7 °C 34371.3 hPa South 20.9 km/h 14 km/h 61 % 0 mm
16:36 -11.7 °C -15.7 °C 34367.9 hPa West 15 km/h 4.2 km/h 61 % 0 mm
16:41 -11.8 °C -16 °C 34367.9 hPa West 26.9 km/h 15.6 km/h 60 % 0 mm
16:46 -11.8 °C -15.8 °C 34371.3 hPa SW 26.9 km/h 15.6 km/h 61 % 0 mm
16:51 -11.8 °C -15.9 °C 34367.9 hPa SW 19.6 km/h 9.8 km/h 60 % 0 mm
16:56 -11.8 °C -15.8 °C 34367.9 hPa SW 17.9 km/h 9.8 km/h 61 % 0 mm
17:01 -11.8 °C -15.8 °C 34367.9 hPa SW 26.9 km/h 9.8 km/h 61 % 0 mm
17:06 -11.9 °C -15.9 °C 34367.9 hPa South 26.9 km/h 15.6 km/h 61 % 0 mm
17:11 -11.9 °C -15.8 °C 34367.9 hPa SW 23.8 km/h 11.6 km/h 62 % 0 mm
17:16 -11.9 °C -15.8 °C 34371.3 hPa SSW 23.8 km/h 15.6 km/h 62 % 0 mm
17:21 -11.9 °C -15.7 °C 34371.3 hPa SW 26.9 km/h 14 km/h 63 % 0 mm
17:26 -12 °C -15.7 °C 34371.3 hPa SW 20.9 km/h 11.6 km/h 63 % 0 mm
17:31 -12 °C -15.6 °C 34364.5 hPa South 20.9 km/h 8 km/h 64 % 0 mm
17:36 -12.1 °C -15.6 °C 34364.5 hPa SW 17.9 km/h 9.8 km/h 65 % 0 mm
17:41 -12.2 °C -15.7 °C 34364.5 hPa South 17.9 km/h 9.8 km/h 65 % 0 mm
17:46 -12.2 °C -15.6 °C 34364.5 hPa South 17.9 km/h 9.8 km/h 66 % 0 mm
17:51 -12.3 °C -15.5 °C 34364.5 hPa SSW 14 km/h 8 km/h 67 % 0 mm
17:56 -12.4 °C -15.6 °C 34367.9 hPa SW 15 km/h 5.6 km/h 68 % 0 mm
18:01 -12.6 °C -15.6 °C 34367.9 hPa SW 15 km/h 9.8 km/h 69 % 0 mm
18:06 -12.7 °C -15.6 °C 34371.3 hPa SW 15.6 km/h 11.6 km/h 70 % 0 mm
18:11 -12.9 °C -15.7 °C 34374.7 hPa SW 11.9 km/h 8 km/h 71 % 0 mm
18:16 -13.1 °C -15.7 °C 34371.3 hPa SW 20.9 km/h 11.6 km/h 72 % 0 mm
18:21 -13.3 °C -15.7 °C 34367.9 hPa SW 20.9 km/h 11.6 km/h 74 % 0 mm
18:26 -13.5 °C -15.8 °C 34374.7 hPa SW 20.9 km/h 14 km/h 75 % 0 mm
18:31 -13.5 °C -15.7 °C 34371.3 hPa SW 21.6 km/h 15.6 km/h 76 % 0 mm
18:36 -13.6 °C -15.7 °C 34371.3 hPa SW 20.9 km/h 9.8 km/h 77 % 0 mm
18:41 -13.7 °C -15.7 °C 34371.3 hPa SW 15.6 km/h 9.8 km/h 78 % 0 mm
18:46 -13.9 °C -15.7 °C 34374.7 hPa NW 15.6 km/h 8 km/h 80 % 0 mm
18:51 -14.1 °C -15.7 °C 34371.3 hPa NW 15 km/h 8 km/h 82 % 0 mm
18:56 -14.2 °C -15.4 °C 34371.3 hPa West 15 km/h 8 km/h 85 % 0 mm
19:01 -14.2 °C -15.4 °C 34378.1 hPa West 15 km/h 9.8 km/h 86 % 0 mm
meteodaganzo
Elogios de Weather Underground - 2.75 mb

Guión original por  Jim McMurry - jmcmurry@mwt.net Adaptado para la plantilla por  Wim van der Kuil - Leuven-Template.eu

Usted encontrará nuestra información del tiempo también en:

WeatherCloud

Weather Underground

Iberian Peninsula Weather Network

AWEKAS

Citizen Weather Observer Program (CWOP)